Time;durP1;ratioP1;P1;durP2;ratioP2;P2;SDS_P1;SDS_P2;PMS_P1;PMS_P2;Temp;Humidity;BMP_temperature;BMP_pressure;BME280_temperature;BME280_humidity;BME280_pressure;Samples;Min_cycle;Max_cycle;Signal;HPM_P1;HPM_P2
2022/11/02 00:01:42;;;;;;;9.05;1.23;;;12.20;99.90;;;;;;6127912;19;19919;-72
2022/11/02 00:03:46;;;;;;;6.45;0.98;;;;;;;;;;6129673;19;19911;-71
2022/11/02 00:05:53;;;;;;;3.05;0.95;;;12.00;99.90;;;;;;6129946;19;19915;-71
2022/11/02 00:07:57;;;;;;;7.95;1.38;;;12.30;99.90;;;;;;6129102;19;19919;-71
2022/11/02 00:10:01;;;;;;;4.97;0.98;;;;;;;;;;6128261;19;20240;-71
2022/11/02 00:12:05;;;;;;;4.70;0.70;;;12.00;99.90;;;;;;6128918;19;19919;-71
2022/11/02 00:14:09;;;;;;;5.32;0.82;;;12.30;99.90;;;;;;6128726;19;19922;-71
2022/11/02 00:16:16;;;;;;;7.80;1.15;;;12.50;99.90;;;;;;6130057;19;19918;-71
2022/11/02 00:18:20;;;;;;;3.50;1.00;;;12.10;99.90;;;;;;6128499;19;19914;-71
2022/11/02 00:20:25;;;;;;;6.90;1.00;;;12.40;99.90;;;;;;6128177;19;19915;-71
2022/11/02 00:22:32;;;;;;;5.97;1.02;;;12.50;99.90;;;;;;6128668;19;19922;-69
2022/11/02 00:24:36;;;;;;;8.38;1.10;;;12.00;99.90;;;;;;6128337;19;19942;-70
2022/11/02 00:26:40;;;;;;;8.43;1.20;;;12.30;99.90;;;;;;6128534;19;19918;-70
2022/11/02 00:28:44;;;;;;;6.38;1.08;;;12.30;99.90;;;;;;6127872;19;19941;-70
2022/11/02 00:30:48;;;;;;;5.60;1.00;;;12.40;99.90;;;;;;6127044;19;19918;-71
2022/11/02 00:32:52;;;;;;;5.43;0.95;;;12.00;99.90;;;;;;6130048;19;19918;-70
2022/11/02 00:34:56;;;;;;;7.95;1.00;;;12.40;99.90;;;;;;6128303;19;19919;-70
2022/11/02 00:37:00;;;;;;;6.28;1.13;;;12.40;99.90;;;;;;6128328;19;19937;-71
2022/11/02 00:39:06;;;;;;;4.50;1.02;;;12.00;99.90;;;;;;6128276;19;20280;-71
2022/11/02 00:41:11;;;;;;;5.22;0.80;;;12.00;99.90;;;;;;6128182;19;20389;-70
2022/11/02 00:43:15;;;;;;;5.85;0.88;;;11.90;99.90;;;;;;6128227;19;19941;-70
2022/11/02 00:45:19;;;;;;;5.28;1.00;;;12.20;99.90;;;;;;6128037;19;19949;-71
2022/11/02 00:47:23;;;;;;;4.45;1.20;;;12.20;99.90;;;;;;6127906;19;19915;-71
2022/11/02 00:49:27;;;;;;;6.15;1.40;;;12.20;99.90;;;;;;6128548;19;19930;-71
2022/11/02 00:51:31;;;;;;;5.10;1.05;;;;;;;;;;6127756;19;20344;-71
2022/11/02 00:53:35;;;;;;;3.38;0.93;;;;;;;;;;6131569;19;19926;-71
2022/11/02 00:55:42;;;;;;;4.85;0.95;;;12.30;99.90;;;;;;6128851;19;19977;-71
2022/11/02 00:57:46;;;;;;;3.90;1.30;;;12.20;99.90;;;;;;6129664;19;19914;-71
2022/11/02 00:59:50;;;;;;;6.15;1.10;;;;;;;;;;6126665;19;19934;-70
2022/11/02 01:01:54;;;;;;;3.75;1.00;;;12.70;99.90;;;;;;6129697;19;19945;-71
2022/11/02 01:03:58;;;;;;;5.80;0.85;;;12.10;99.90;;;;;;6128383;19;20279;-71
2022/11/02 01:06:02;;;;;;;7.50;1.20;;;;;;;;;;6131146;19;19918;-71
2022/11/02 01:08:06;;;;;;;4.45;0.70;;;12.00;99.90;;;;;;6128008;19;20267;-70
2022/11/02 01:10:12;;;;;;;5.38;1.45;;;11.90;99.90;;;;;;6130904;19;19918;-71
2022/11/02 01:12:18;;;;;;;5.25;1.05;;;11.70;99.90;;;;;;6127531;19;20370;-71
2022/11/02 01:14:22;;;;;;;6.93;0.85;;;11.90;99.90;;;;;;6127437;19;19918;-71
2022/11/02 01:16:26;;;;;;;5.45;0.80;;;11.70;99.90;;;;;;6127422;19;20255;-71
2022/11/02 01:18:30;;;;;;;4.85;0.70;;;11.80;99.90;;;;;;6127081;19;19914;-71
2022/11/02 01:20:34;;;;;;;5.05;1.10;;;11.80;99.90;;;;;;6127475;19;19919;-71
2022/11/02 01:22:38;;;;;;;7.05;1.45;;;;;;;;;;6128482;19;19922;-72
2022/11/02 01:24:42;;;;;;;3.78;0.88;;;11.50;99.90;;;;;;6130270;19;19945;-72
2022/11/02 01:26:46;;;;;;;5.85;0.52;;;11.30;99.90;;;;;;6127323;19;20271;-73
2022/11/02 01:28:55;;;;;;;2.35;0.40;;;11.10;99.90;;;;;;6126763;19;19919;-72
2022/11/02 01:30:59;;;;;;;;;;;12.40;99.90;;;;;;6128508;19;20363;-73
2022/11/02 01:33:03;;;;;;;1.40;0.35;;;10.60;99.90;;;;;;6127421;19;19919;-72
2022/11/02 01:35:07;;;;;;;5.00;0.80;;;10.80;99.90;;;;;;6127147;19;19911;-72
2022/11/02 01:37:11;;;;;;;1.45;0.30;;;10.80;99.90;;;;;;6127533;19;19914;-73
2022/11/02 01:39:16;;;;;;;2.53;0.70;;;10.80;99.90;;;;;;6127267;19;19915;-73
2022/11/02 01:41:20;;;;;;;4.72;0.63;;;10.40;99.90;;;;;;6128953;19;19926;-72
2022/11/02 01:43:25;;;;;;;1.05;0.30;;;10.60;99.90;;;;;;6127111;19;19915;-72
2022/11/02 01:45:32;;;;;;;4.90;0.50;;;10.50;99.90;;;;;;6125905;19;19910;-72
2022/11/02 01:47:40;;;;;;;2.13;0.60;;;10.70;99.90;;;;;;6126645;19;20304;-72
2022/11/02 01:49:47;;;;;;;2.60;0.60;;;10.50;99.90;;;;;;6128704;19;19915;-72
2022/11/02 01:51:57;;;;;;;4.53;0.70;;;10.90;99.90;;;;;;6126599;19;19915;-72
2022/11/02 01:54:06;;;;;;;1.48;0.50;;;10.40;99.90;;;;;;6126058;19;19950;-72
2022/11/02 01:56:14;;;;;;;1.02;0.40;;;10.40;99.90;;;;;;6127699;19;20274;-71
2022/11/02 01:58:18;;;;;;;2.10;0.47;;;10.60;99.90;;;;;;6128844;19;20269;-71
2022/11/02 02:00:22;;;;;;;3.53;0.50;;;10.60;99.90;;;;;;6126310;19;19925;-71
2022/11/02 02:02:29;;;;;;;5.35;0.85;;;10.40;99.90;;;;;;6124392;19;20343;-72
2022/11/02 02:04:34;;;;;;;3.95;0.68;;;10.20;99.90;;;;;;6126265;19;20360;-71
2022/11/02 02:06:39;;;;;;;4.50;0.80;;;9.30;99.90;;;;;;6127707;19;19910;-71
2022/11/02 02:08:47;;;;;;;2.80;0.70;;;10.40;99.90;;;;;;6131148;19;19946;-71
2022/11/02 02:10:51;;;;;;;3.30;0.68;;;10.40;99.90;;;;;;6131608;19;19915;-71
2022/11/02 02:12:55;;;;;;;4.68;0.90;;;10.50;99.90;;;;;;6134474;19;19918;-71
2022/11/02 02:15:00;;;;;;;1.17;0.60;;;10.30;99.90;;;;;;6133048;19;20362;-71
2022/11/02 02:17:22;;;;;;;2.35;1.50;;;10.30;99.90;;;;;;6132340;19;19919;-71
2022/11/02 02:19:42;;;;;;;9.05;1.08;;;10.50;99.90;;;;;;6132555;19;19926;-71
2022/11/02 02:21:57;;;;;;;5.80;1.08;;;10.50;99.90;;;;;;6133352;19;20347;-72
2022/11/02 02:24:19;;;;;;;7.07;1.33;;;10.50;99.90;;;;;;6130952;19;19922;-71
2022/11/02 02:26:46;;;;;;;5.50;0.90;;;10.30;99.90;;;;;;6131655;19;19915;-71
2022/11/02 02:28:56;;;;;;;7.13;1.50;;;10.40;99.90;;;;;;6130184;19;19914;-72
2022/11/02 02:31:06;;;;;;;11.52;1.77;;;10.50;99.90;;;;;;6130086;19;19919;-72
2022/11/02 02:33:14;;;;;;;6.72;1.23;;;10.50;99.90;;;;;;6132227;19;19915;-71
2022/11/02 02:35:26;;;;;;;9.73;1.42;;;10.50;99.90;;;;;;6130512;19;19941;-71
2022/11/02 02:37:36;;;;;;;4.05;1.02;;;10.50;99.90;;;;;;6130989;19;19914;-72
2022/11/02 02:39:45;;;;;;;6.47;1.92;;;10.50;99.90;;;;;;6134760;19;19912;-71
2022/11/02 02:41:57;;;;;;;5.13;1.25;;;10.20;99.90;;;;;;6130805;19;19926;-71
2022/11/02 02:44:06;;;;;;;6.38;1.15;;;10.70;99.90;;;;;;6130769;19;19917;-71
2022/11/02 02:46:14;;;;;;;5.63;1.27;;;10.80;99.90;;;;;;6130851;19;20344;-72
2022/11/02 02:48:21;;;;;;;6.70;1.05;;;10.20;99.90;;;;;;6131127;19;19919;-72
2022/11/02 02:50:30;;;;;;;6.22;1.10;;;10.70;99.90;;;;;;6130672;19;20315;-71
2022/11/02 02:52:36;;;;;;;4.15;1.65;;;10.50;99.90;;;;;;6130761;19;19939;-72
2022/11/02 02:54:43;;;;;;;6.38;1.70;;;10.80;99.90;;;;;;6131728;19;19910;-72
2022/11/02 02:56:51;;;;;;;6.63;1.23;;;10.80;99.90;;;;;;6129973;19;19914;-71
2022/11/02 02:59:01;;;;;;;6.88;1.50;;;10.80;99.90;;;;;;6134360;19;19911;-71
2022/11/02 03:01:08;;;;;;;8.07;1.10;;;10.80;99.90;;;;;;6130667;19;19914;-71
2022/11/02 03:03:17;;;;;;;5.30;1.02;;;11.00;99.90;;;;;;6130383;19;19915;-72
2022/11/02 03:05:25;;;;;;;9.57;1.15;;;10.80;99.90;;;;;;6131388;19;19915;-72
2022/11/02 03:07:34;;;;;;;4.43;0.95;;;10.70;99.90;;;;;;6132039;19;19918;-72
2022/11/02 03:09:41;;;;;;;;;;;11.20;99.90;;;;;;6132856;19;20272;-72
2022/11/02 03:11:53;;;;;;;7.93;1.20;;;10.50;99.90;;;;;;6128849;19;19915;-72
2022/11/02 03:14:09;;;;;;;6.28;1.20;;;10.50;99.90;;;;;;6130164;19;20275;-72
2022/11/02 03:16:31;;;;;;;4.53;1.00;;;11.40;99.90;;;;;;6134044;19;19918;-71
2022/11/02 03:18:44;;;;;;;3.15;0.90;;;10.80;99.90;;;;;;6129611;19;19919;-72
2022/11/02 03:20:59;;;;;;;8.13;1.33;;;11.50;99.90;;;;;;6130071;19;20382;-72
2022/11/02 03:23:13;;;;;;;4.60;0.80;;;10.90;99.90;;;;;;6133874;19;19950;-72
2022/11/02 03:25:23;;;;;;;6.93;1.17;;;11.10;99.90;;;;;;6129384;19;20308;-72
2022/11/02 03:27:38;;;;;;;2.58;0.73;;;11.10;99.90;;;;;;6129918;19;19933;-71
2022/11/02 03:29:50;;;;;;;4.28;0.80;;;11.50;99.90;;;;;;6130195;19;19970;-71
2022/11/02 03:31:59;;;;;;;2.38;0.55;;;10.80;99.90;;;;;;6128283;19;19910;-72
2022/11/02 03:34:16;;;;;;;4.68;0.77;;;10.80;99.90;;;;;;6129599;19;20374;-72
2022/11/02 03:36:25;;;;;;;3.20;0.80;;;11.10;99.90;;;;;;6129065;19;19919;-72
2022/11/02 03:38:39;;;;;;;3.30;0.60;;;11.00;99.90;;;;;;6130370;19;19923;-72
2022/11/02 03:40:46;;;;;;;3.58;0.90;;;11.30;99.90;;;;;;6133167;19;19911;-72
2022/11/02 03:42:51;;;;;;;4.25;0.75;;;10.80;99.90;;;;;;6129672;19;19933;-72
2022/11/02 03:45:00;;;;;;;2.20;0.85;;;10.50;99.90;;;;;;6129544;19;19914;-72
2022/11/02 03:47:09;;;;;;;4.72;1.10;;;10.80;99.90;;;;;;6129885;19;20430;-72
2022/11/02 03:49:17;;;;;;;5.03;1.15;;;10.60;99.90;;;;;;6129359;19;19914;-72
2022/11/02 03:51:24;;;;;;;3.38;0.70;;;10.70;99.90;;;;;;6130906;19;19922;-72
2022/11/02 03:53:34;;;;;;;2.78;1.02;;;10.80;99.90;;;;;;6130747;19;19928;-73
2022/11/02 03:55:42;;;;;;;6.20;0.95;;;10.60;99.90;;;;;;6130193;19;20021;-72
2022/11/02 03:57:49;;;;;;;2.30;0.60;;;10.70;99.90;;;;;;6132774;19;19929;-72
2022/11/02 03:59:53;;;;;;;4.30;0.60;;;11.10;99.90;;;;;;6129358;19;19941;-72
2022/11/02 04:01:57;;;;;;;4.45;0.77;;;10.70;99.90;;;;;;6127799;19;20374;-72
2022/11/02 04:04:06;;;;;;;4.15;0.73;;;10.60;99.90;;;;;;6129128;19;20251;-72
2022/11/02 04:06:11;;;;;;;2.22;0.60;;;11.00;99.90;;;;;;6129151;19;20028;-72
2022/11/02 04:08:23;;;;;;;6.32;1.20;;;10.60;99.90;;;;;;6129149;19;19922;-72
2022/11/02 04:10:27;;;;;;;2.72;0.52;;;10.70;99.90;;;;;;6132805;19;19919;-72
2022/11/02 04:14:46;;;;;;;4.80;0.80;;;10.70;99.90;;;;;;6132445;19;19962;-71
2022/11/02 04:19:26;;;;;;;;;;;10.80;99.90;;;;;;6131308;19;19911;-72
2022/11/02 04:19:28;;;;;;;;;;;10.60;99.90;;;;;;6131356;19;19937;-73
2022/11/02 04:21:32;;;;;;;3.88;0.85;;;10.20;99.90;;;;;;6129343;19;19915;-72
2022/11/02 04:25:52;;;;;;;5.75;0.93;;;10.30;99.90;;;;;;6129085;19;19922;-72
2022/11/02 04:27:56;;;;;;;4.45;0.90;;;;;;;;;;6128988;19;19926;-72
2022/11/02 04:30:00;;;;;;;2.95;0.52;;;10.20;99.90;;;;;;6126572;19;19917;-72
2022/11/02 04:32:04;;;;;;;6.65;0.88;;;10.10;99.90;;;;;;6129188;19;20029;-72
2022/11/02 04:34:05;;;;;;;3.83;0.70;;;10.10;99.90;;;;;;6128742;19;19949;-72
2022/11/02 04:36:12;;;;;;;4.60;0.80;;;10.50;99.90;;;;;;6128434;19;19978;-73
2022/11/02 04:40:32;;;;;;;4.22;0.80;;;10.00;99.90;;;;;;6128461;19;19915;-72
2022/11/02 04:42:33;;;;;;;3.38;0.52;;;10.20;99.90;;;;;;6129678;19;19934;-72
2022/11/02 04:44:37;;;;;;;5.75;0.75;;;10.40;99.90;;;;;;6127984;19;19939;-72
2022/11/02 04:46:42;;;;;;;3.72;0.60;;;10.20;99.90;;;;;;6127766;19;20275;-73
2022/11/02 04:48:45;;;;;;;6.28;0.82;;;10.30;99.90;;;;;;6131716;19;19915;-72
2022/11/02 04:50:49;;;;;;;4.28;0.60;;;10.10;99.90;;;;;;6128775;19;19918;-72
2022/11/02 04:53:00;;;;;;;3.92;0.70;;;10.30;99.90;;;;;;6127321;19;19942;-71
2022/11/02 04:55:03;;;;;;;3.63;0.73;;;10.20;99.90;;;;;;6129454;19;19946;-71
2022/11/02 04:57:07;;;;;;;4.45;0.80;;;10.30;99.90;;;;;;6129299;19;19945;-72
2022/11/02 04:59:12;;;;;;;2.25;0.57;;;10.10;99.90;;;;;;6127819;19;20273;-71
2022/11/02 05:01:18;;;;;;;2.95;0.63;;;10.20;99.90;;;;;;6130157;19;19915;-71
2022/11/02 05:03:25;;;;;;;4.32;1.13;;;10.20;99.90;;;;;;6126273;19;20562;-71
2022/11/02 05:05:29;;;;;;;1.27;1.05;;;10.10;99.90;;;;;;6130598;19;19941;-71
2022/11/02 05:07:33;;;;;;;3.33;0.80;;;10.20;99.90;;;;;;6127448;19;19914;-72
2022/11/02 05:09:41;;;;;;;3.78;1.02;;;10.10;99.90;;;;;;6128066;19;19915;-72
2022/11/02 05:11:44;;;;;;;5.95;0.80;;;10.20;99.90;;;;;;6126760;19;19923;-72
2022/11/02 05:13:49;;;;;;;2.38;0.50;;;;;;;;;;6127598;19;19915;-72
2022/11/02 05:15:52;;;;;;;5.28;0.90;;;10.50;99.90;;;;;;6128258;19;19922;-72
2022/11/02 05:17:56;;;;;;;4.75;0.70;;;;;;;;;;6129184;19;20257;-71
2022/11/02 05:20:00;;;;;;;3.83;0.50;;;10.20;99.90;;;;;;6127734;19;19918;-71
2022/11/02 05:22:04;;;;;;;2.17;0.77;;;10.00;99.90;;;;;;6129059;19;19915;-71
2022/11/02 05:24:09;;;;;;;3.97;0.88;;;10.10;99.90;;;;;;6126993;19;19911;-72
2022/11/02 05:26:15;;;;;;;2.00;0.60;;;10.30;99.90;;;;;;6127351;19;19915;-71
2022/11/02 05:28:19;;;;;;;6.68;0.95;;;9.90;99.90;;;;;;6129355;19;19910;-72
2022/11/02 05:30:23;;;;;;;2.85;0.65;;;10.10;99.90;;;;;;6127067;19;19914;-72
2022/11/02 05:32:27;;;;;;;5.43;1.00;;;10.10;99.90;;;;;;6126184;19;19937;-72
2022/11/02 05:34:31;;;;;;;4.35;1.05;;;;;;;;;;6127320;19;19926;-71
2022/11/02 05:36:34;;;;;;;4.43;0.93;;;10.20;99.90;;;;;;6128543;19;19941;-71
2022/11/02 05:38:38;;;;;;;5.55;1.20;;;;;;;;;;6128030;19;19915;-71
2022/11/02 05:40:43;;;;;;;4.28;1.00;;;;;;;;;;6126655;19;20296;-71
2022/11/02 05:42:49;;;;;;;3.95;0.80;;;10.20;99.90;;;;;;6126909;19;19982;-71
2022/11/02 05:44:53;;;;;;;3.47;0.90;;;10.40;99.90;;;;;;6126669;19;19918;-71
2022/11/02 05:46:57;;;;;;;5.18;1.30;;;10.20;99.90;;;;;;6126754;19;19923;-71
2022/11/02 05:49:01;;;;;;;7.53;1.13;;;10.10;99.90;;;;;;6126783;19;19911;-72
2022/11/02 05:51:06;;;;;;;5.72;1.10;;;10.10;99.90;;;;;;6128980;19;19915;-72
2022/11/02 05:53:10;;;;;;;6.47;0.88;;;10.00;99.90;;;;;;6125093;19;19911;-72
2022/11/02 05:55:14;;;;;;;3.45;1.33;;;10.20;99.90;;;;;;6128118;19;19922;-72
2022/11/02 05:57:18;;;;;;;6.78;1.58;;;10.00;99.90;;;;;;6126205;19;20328;-72
2022/11/02 05:59:25;;;;;;;3.65;1.02;;;10.30;99.90;;;;;;6126155;19;19918;-71
2022/11/02 06:01:29;;;;;;;7.93;1.20;;;10.20;99.90;;;;;;6126023;19;19914;-72
2022/11/02 06:03:34;;;;;;;6.40;1.23;;;9.70;99.90;;;;;;6128045;19;19931;-72
2022/11/02 06:05:37;;;;;;;5.70;0.75;;;10.40;99.90;;;;;;6124183;19;20210;-71
2022/11/02 06:07:41;;;;;;;4.45;1.08;;;10.40;99.90;;;;;;6128180;19;19922;-71
2022/11/02 06:09:45;;;;;;;7.22;1.00;;;;;;;;;;6126373;19;19925;-71
2022/11/02 06:11:50;;;;;;;4.35;0.80;;;;;;;;;;6125446;19;19949;-72
2022/11/02 06:13:53;;;;;;;7.13;0.93;;;10.50;99.90;;;;;;6128647;19;20281;-72
2022/11/02 06:16:04;;;;;;;3.80;1.15;;;10.20;99.90;;;;;;6125923;19;19918;-72
2022/11/02 06:18:07;;;;;;;4.13;1.15;;;10.00;99.90;;;;;;6125757;19;19923;-71
2022/11/02 06:20:13;;;;;;;4.95;1.13;;;10.70;99.90;;;;;;6129364;19;19915;-72
2022/11/02 06:22:17;;;;;;;4.53;1.20;;;10.60;99.90;;;;;;6127949;19;19918;-72
2022/11/02 06:24:20;;;;;;;4.18;1.00;;;10.20;99.90;;;;;;6125315;19;19919;-72
2022/11/02 06:26:24;;;;;;;5.68;1.52;;;10.40;99.90;;;;;;6125655;19;19929;-72
2022/11/02 06:28:29;;;;;;;5.30;1.35;;;10.50;99.90;;;;;;6126679;19;19923;-72
2022/11/02 06:30:33;;;;;;;4.07;1.05;;;;;;;;;;6125269;19;20286;-72
2022/11/02 06:32:40;;;;;;;7.78;1.40;;;10.10;99.90;;;;;;6125757;19;19926;-71
2022/11/02 06:34:44;;;;;;;4.53;1.05;;;10.60;99.90;;;;;;6126508;19;20542;-72
2022/11/02 06:36:48;;;;;;;2.67;0.85;;;;;;;;;;6127227;19;19918;-71
2022/11/02 06:38:52;;;;;;;4.88;0.95;;;10.10;99.90;;;;;;6126633;19;19918;-72
2022/11/02 06:40:56;;;;;;;5.95;0.98;;;10.30;99.90;;;;;;6123779;19;19930;-70
2022/11/02 06:43:00;;;;;;;6.68;1.00;;;10.30;99.90;;;;;;6126816;19;19911;-70
2022/11/02 06:45:04;;;;;;;5.40;1.15;;;10.10;99.90;;;;;;6124801;19;19922;-70
2022/11/02 06:47:08;;;;;;;5.00;1.00;;;10.10;99.90;;;;;;6127243;19;19922;-71
2022/11/02 06:49:15;;;;;;;3.58;1.10;;;10.00;99.90;;;;;;6127211;19;19929;-71
2022/11/02 06:51:19;;;;;;;7.32;1.70;;;;;;;;;;6125142;19;20010;-71
2022/11/02 06:53:23;;;;;;;5.22;1.27;;;10.10;99.90;;;;;;6127758;19;19934;-71
2022/11/02 06:55:27;;;;;;;7.28;1.00;;;10.00;99.90;;;;;;6128131;19;19949;-71
2022/11/02 06:57:37;;;;;;;3.50;1.10;;;10.30;99.90;;;;;;6131151;19;19926;-73
2022/11/02 06:59:41;;;;;;;9.60;2.83;;;10.80;99.90;;;;;;6131686;19;19922;-78
2022/11/02 07:01:45;;;;;;;5.50;0.93;;;;;;;;;;6131644;19;19919;-77
2022/11/02 07:03:49;;;;;;;4.50;1.17;;;10.30;99.90;;;;;;6129641;19;19919;-76
2022/11/02 07:05:56;;;;;;;8.93;1.85;;;10.30;99.90;;;;;;6129422;19;19938;-76
2022/11/02 07:08:00;;;;;;;5.43;1.45;;;;;;;;;;6131463;19;19918;-77
2022/11/02 07:10:09;;;;;;;6.03;1.08;;;10.50;99.90;;;;;;6130198;19;20247;-77
2022/11/02 07:12:13;;;;;;;6.75;1.50;;;10.10;99.90;;;;;;6129575;19;19911;-77
2022/11/02 07:14:17;;;;;;;5.38;1.00;;;10.20;99.90;;;;;;6124260;19;20276;-77
2022/11/02 07:16:21;;;;;;;5.05;1.52;;;;;;;;;;6129892;19;19974;-73
2022/11/02 07:18:25;;;;;;;6.03;1.40;;;10.30;99.90;;;;;;6128554;19;19947;-73
2022/11/02 07:20:29;;;;;;;4.10;1.60;;;;;;;;;;6128867;19;19934;-74
2022/11/02 07:22:36;;;;;;;7.30;1.00;;;10.50;99.90;;;;;;6128754;19;19943;-74
2022/11/02 07:24:39;;;;;;;5.18;1.08;;;10.30;99.90;;;;;;6130605;19;19919;-74
2022/11/02 07:26:44;;;;;;;5.88;1.48;;;;;;;;;;6130082;19;19922;-74
2022/11/02 07:28:48;;;;;;;7.82;1.80;;;;;;;;;;6130167;19;19919;-73
2022/11/02 07:30:55;;;;;;;7.85;1.23;;;10.60;99.90;;;;;;6129054;19;20277;-73
2022/11/02 07:32:59;;;;;;;7.88;1.48;;;10.30;99.90;;;;;;6127622;19;19936;-74
2022/11/02 07:35:03;;;;;;;7.90;1.67;;;10.30;99.90;;;;;;6129201;19;20267;-74
2022/11/02 07:37:07;;;;;;;6.10;1.10;;;;;;;;;;6129356;19;19915;-74
2022/11/02 07:39:14;;;;;;;2.78;0.90;;;10.20;99.90;;;;;;6129541;19;19915;-74
2022/11/02 07:41:18;;;;;;;5.63;1.05;;;10.30;99.90;;;;;;6129423;19;20260;-75
2022/11/02 07:43:22;;;;;;;10.82;1.25;;;10.30;99.90;;;;;;6129675;19;19966;-73
2022/11/02 07:45:27;;;;;;;4.18;0.98;;;10.20;99.90;;;;;;6129165;19;19925;-73
2022/11/02 07:47:32;;;;;;;11.23;1.80;;;10.20;99.90;;;;;;6130842;19;20311;-73
2022/11/02 07:49:36;;;;;;;7.43;1.15;;;10.80;99.90;;;;;;6129097;19;19971;-73
2022/11/02 07:51:40;;;;;;;3.70;0.73;;;;;;;;;;6129026;19;19919;-74
2022/11/02 07:53:43;;;;;;;3.88;0.80;;;10.30;99.90;;;;;;6127900;19;20342;-73
2022/11/02 07:55:50;;;;;;;7.78;1.13;;;10.20;99.90;;;;;;6128551;19;19914;-72
2022/11/02 07:57:58;;;;;;;5.03;1.95;;;10.70;99.90;;;;;;6129599;19;19915;-73
2022/11/02 08:00:03;;;;;;;6.03;0.93;;;10.10;99.90;;;;;;6130489;19;19918;-74
2022/11/02 08:02:07;;;;;;;4.82;0.85;;;10.10;99.90;;;;;;6128763;19;19918;-74
2022/11/02 08:04:11;;;;;;;6.75;1.42;;;10.90;99.90;;;;;;6128946;19;19917;-74
2022/11/02 08:06:15;;;;;;;3.17;0.90;;;10.70;99.90;;;;;;6129573;19;20280;-75
2022/11/02 08:08:21;;;;;;;6.05;1.00;;;10.70;99.90;;;;;;6130503;19;19915;-74
2022/11/02 08:10:25;;;;;;;7.72;1.65;;;10.30;99.90;;;;;;6129205;19;19921;-75
2022/11/02 08:12:31;;;;;;;4.70;1.38;;;10.60;99.90;;;;;;6128615;19;20319;-74
2022/11/02 08:14:35;;;;;;;5.88;1.48;;;10.40;99.90;;;;;;6128141;19;19926;-74
2022/11/02 08:16:39;;;;;;;5.78;1.00;;;10.10;99.90;;;;;;6128698;19;20235;-75
2022/11/02 08:18:43;;;;;;;7.22;1.38;;;10.30;99.90;;;;;;6128440;19;19922;-74
2022/11/02 08:20:47;;;;;;;4.38;0.90;;;10.70;99.90;;;;;;6128366;19;19925;-74
2022/11/02 08:22:51;;;;;;;3.70;1.25;;;10.80;99.90;;;;;;6128195;19;19914;-75
2022/11/02 08:24:55;;;;;;;8.60;1.30;;;10.30;99.90;;;;;;6128133;19;19919;-74
2022/11/02 08:26:59;;;;;;;4.90;1.05;;;10.30;99.90;;;;;;6128788;19;19915;-73
2022/11/02 08:29:05;;;;;;;5.45;1.00;;;10.60;99.90;;;;;;6128831;19;19915;-73
2022/11/02 08:31:13;;;;;;;5.80;1.02;;;10.80;99.90;;;;;;6128352;19;20288;-75
2022/11/02 08:33:19;;;;;;;5.45;0.80;;;10.70;99.90;;;;;;6127814;19;19919;-74
2022/11/02 08:35:23;;;;;;;5.85;1.40;;;10.90;99.90;;;;;;6128085;19;19942;-74
2022/11/02 08:37:27;;;;;;;7.18;0.90;;;10.70;99.90;;;;;;6128280;19;19938;-74
2022/11/02 08:39:31;;;;;;;4.47;0.82;;;10.90;99.90;;;;;;6126487;19;19930;-75
2022/11/02 08:41:35;;;;;;;7.30;1.10;;;10.80;99.90;;;;;;6128027;19;19915;-74
2022/11/02 08:43:38;;;;;;;4.80;1.02;;;10.40;99.90;;;;;;6128166;19;19946;-74
2022/11/02 08:45:46;;;;;;;3.15;0.80;;;10.90;99.90;;;;;;6127735;19;19959;-75
2022/11/02 08:47:50;;;;;;;5.95;0.88;;;11.00;99.90;;;;;;6128124;19;19923;-74
2022/11/02 08:49:54;;;;;;;3.92;0.63;;;;;;;;;;6127980;19;19929;-74
2022/11/02 08:51:58;;;;;;;6.50;0.75;;;;;;;;;;6123514;19;19975;-74
2022/11/02 08:54:02;;;;;;;6.22;0.82;;;10.70;99.90;;;;;;6124984;19;19929;-74
2022/11/02 08:56:06;;;;;;;3.67;1.45;;;10.80;99.90;;;;;;6127633;19;19994;-73
2022/11/02 08:58:11;;;;;;;7.20;0.90;;;10.60;99.90;;;;;;6127361;19;20253;-74
2022/11/02 09:00:16;;;;;;;5.50;0.75;;;10.90;99.90;;;;;;6127316;19;19923;-74
2022/11/02 09:02:23;;;;;;;5.35;1.45;;;10.70;99.90;;;;;;6126188;19;19915;-74
2022/11/02 09:04:27;;;;;;;7.28;0.95;;;10.50;99.90;;;;;;6127895;19;20340;-75
2022/11/02 09:06:31;;;;;;;5.53;1.02;;;;;;;;;;6128963;19;19915;-74
2022/11/02 09:08:35;;;;;;;4.18;0.65;;;10.80;99.90;;;;;;6127609;19;20275;-75
2022/11/02 09:10:39;;;;;;;6.85;1.10;;;10.90;99.90;;;;;;6127152;19;19927;-74
2022/11/02 09:12:43;;;;;;;2.85;0.90;;;11.30;99.90;;;;;;6127154;19;19922;-74
2022/11/02 09:14:46;;;;;;;3.90;0.80;;;10.60;99.90;;;;;;6127444;19;20276;-74
2022/11/02 09:16:50;;;;;;;2.13;0.50;;;11.00;99.90;;;;;;6127433;19;19961;-73
2022/11/02 09:18:57;;;;;;;7.45;1.17;;;11.40;99.90;;;;;;6127327;19;20283;-73
2022/11/02 09:21:03;;;;;;;5.25;0.73;;;11.10;99.90;;;;;;6127276;19;19924;-73
2022/11/02 09:23:07;;;;;;;3.67;0.70;;;11.80;99.90;;;;;;6126878;19;19915;-73
2022/11/02 09:25:11;;;;;;;3.65;0.50;;;11.70;99.90;;;;;;6125916;19;20252;-73
2022/11/02 09:27:15;;;;;;;5.05;0.80;;;11.60;99.90;;;;;;6127064;19;19953;-73
2022/11/02 09:29:19;;;;;;;5.50;0.90;;;11.60;99.90;;;;;;6124969;19;19934;-73
2022/11/02 09:31:23;;;;;;;3.38;0.80;;;11.70;99.90;;;;;;6127117;19;19941;-74
2022/11/02 09:33:28;;;;;;;8.15;0.75;;;;;;;;;;6125798;19;19978;-74
2022/11/02 09:35:36;;;;;;;6.97;1.02;;;11.40;99.90;;;;;;6128720;19;19936;-73
2022/11/02 09:37:40;;;;;;;5.45;1.13;;;11.40;99.90;;;;;;6127104;19;19978;-73
2022/11/02 09:39:44;;;;;;;4.68;0.57;;;11.70;99.90;;;;;;6125211;19;20312;-73
2022/11/02 09:41:53;;;;;;;2.53;0.47;;;11.70;99.90;;;;;;6126093;19;20257;-73
2022/11/02 09:44:07;;;;;;;2.83;0.60;;;12.00;99.90;;;;;;6127005;19;19918;-73
2022/11/02 09:46:17;;;;;;;6.88;0.98;;;11.30;99.90;;;;;;6127994;19;20256;-74
2022/11/02 09:48:25;;;;;;;4.85;0.93;;;12.00;99.90;;;;;;6126542;19;19985;-74
2022/11/02 09:50:41;;;;;;;6.72;0.75;;;12.40;99.90;;;;;;6126987;19;19922;-73
2022/11/02 09:52:47;;;;;;;3.60;0.82;;;12.00;99.90;;;;;;6129009;19;19938;-71
2022/11/02 09:54:54;;;;;;;5.30;1.00;;;11.40;99.90;;;;;;6126922;19;19918;-74
2022/11/02 09:57:02;;;;;;;5.78;1.25;;;11.70;99.90;;;;;;6127629;19;19942;-74
2022/11/02 09:59:13;;;;;;;7.53;1.50;;;11.90;99.90;;;;;;6126305;19;19949;-75
2022/11/02 10:01:29;;;;;;;6.68;0.82;;;11.70;99.90;;;;;;6127650;19;19955;-75
2022/11/02 10:03:43;;;;;;;5.55;0.98;;;11.50;99.90;;;;;;6128113;19;19929;-74
2022/11/02 10:05:58;;;;;;;3.00;0.73;;;11.60;99.90;;;;;;6127802;19;19919;-75
2022/11/02 10:08:21;;;;;;;5.47;0.70;;;11.60;99.90;;;;;;6127613;19;19911;-75
2022/11/02 10:10:30;;;;;;;5.57;0.80;;;11.70;99.90;;;;;;6127579;19;19918;-74
2022/11/02 10:12:42;;;;;;;3.22;0.80;;;11.60;99.90;;;;;;6126885;19;19957;-75
2022/11/02 10:14:57;;;;;;;5.43;0.68;;;11.30;99.90;;;;;;6125862;19;19938;-75
2022/11/02 10:17:10;;;;;;;5.18;0.90;;;11.70;99.90;;;;;;6127375;19;19918;-75
2022/11/02 10:19:17;;;;;;;4.55;1.40;;;11.80;99.90;;;;;;6127390;19;19918;-75
2022/11/02 10:21:28;;;;;;;3.55;0.75;;;11.60;99.90;;;;;;6127091;19;19937;-75
2022/11/02 10:23:36;;;;;;;7.20;0.88;;;12.20;99.90;;;;;;6127868;19;19914;-75
2022/11/02 10:25:40;;;;;;;5.05;1.05;;;;;;;;;;6125883;19;19915;-75
2022/11/02 10:27:48;;;;;;;5.10;0.80;;;12.50;99.90;;;;;;6131432;19;20363;-75
2022/11/02 10:29:59;;;;;;;4.15;0.60;;;11.90;99.90;;;;;;6133639;19;19938;-75
2022/11/02 10:32:04;;;;;;;5.70;0.75;;;12.80;99.90;;;;;;6133187;19;19910;-75
2022/11/02 10:34:21;;;;;;;7.55;1.33;;;12.40;99.90;;;;;;6130994;19;19922;-75
2022/11/02 10:36:40;;;;;;;7.55;1.45;;;13.60;99.90;;;;;;6132009;19;19914;-76
2022/11/02 10:38:59;;;;;;;3.28;0.93;;;13.20;99.90;;;;;;6130943;19;19919;-75
2022/11/02 10:41:32;;;;;;;4.28;1.00;;;12.60;99.90;;;;;;6132880;19;19922;-75
2022/11/02 10:43:56;;;;;;;5.25;1.05;;;12.90;99.90;;;;;;6131922;19;19938;-74
2022/11/02 10:46:22;;;;;;;6.18;0.95;;;12.80;99.90;;;;;;6131869;19;19919;-75
2022/11/02 10:48:36;;;;;;;13.95;1.15;;;14.00;99.90;;;;;;6131165;19;19921;-75
2022/11/02 10:50:48;;;;;;;4.70;1.40;;;13.70;99.90;;;;;;6133355;19;19922;-74
2022/11/02 10:52:54;;;;;;;7.78;1.23;;;13.70;99.90;;;;;;6131113;19;19941;-75
2022/11/02 10:54:58;;;;;;;4.78;0.95;;;13.20;99.90;;;;;;6127035;19;19919;-75
2022/11/02 10:57:09;;;;;;;5.70;0.80;;;13.10;99.90;;;;;;6131231;19;19914;-75
2022/11/02 10:59:17;;;;;;;6.88;0.75;;;13.30;99.90;;;;;;6131489;19;19938;-75
2022/11/02 11:01:21;;;;;;;2.78;0.50;;;13.00;99.90;;;;;;6130253;19;20271;-75
2022/11/02 11:03:25;;;;;;;8.80;1.25;;;13.00;99.90;;;;;;6130834;19;19922;-75
2022/11/02 11:05:29;;;;;;;3.60;0.80;;;;;;;;;;6130433;19;19919;-74
2022/11/02 11:07:33;;;;;;;5.15;0.93;;;13.60;99.90;;;;;;6132644;19;19956;-75
2022/11/02 11:09:48;;;;;;;5.63;0.68;;;12.70;99.90;;;;;;6129913;19;19941;-75
2022/11/02 11:11:57;;;;;;;5.25;0.88;;;13.40;99.90;;;;;;6128028;19;19918;-75
2022/11/02 11:14:05;;;;;;;8.30;0.70;;;12.70;99.90;;;;;;6128739;19;19927;-75
2022/11/02 11:16:09;;;;;;;7.20;0.80;;;13.30;99.90;;;;;;6128965;19;19919;-73